Flora, IL

11:23 AM CDT on April 30, 2017 (GMT -0500)
Flora Municipal

Weather History for KFOA - January, 2014

Change the Weather History Date:

Friday, January 24, 2014

  Actual Average (KSLO) Record (KSLO)
Temperature  
Mean Temperature 14 °F -  
Max Temperature 28 °F 42 °F 68 °F (1967)
Min Temperature 1 °F 23 °F -12 °F (1963)
Degree Days  
Heating Degree Days 50    
Moisture  
Dew Point 2 °F    
Average Humidity 59    
Maximum Humidity 83    
Minimum Humidity 39    
Precipitation  
Precipitation 0.00 in - - ()
Sea Level Pressure  
Sea Level Pressure 30.32 in    
Wind  
Wind Speed 11 mph (SSW)    
Max Wind Speed 25 mph    
Max Gust Speed 33 mph    
Visibility 10 miles    
Events      
Averages and records for this station are not official NWS values.
T = Trace of Precipitation, MM = Missing Value Source: NWS Daily Summary

Daily Weather History Graph

Daily Weather History Graph

Search for Another Location

Airport or City:

Trip Planner

Search our weather history database for the weather conditions in past years. The results will help you decide how hot, cold, wet, or windy it might be!

Date:

Astronomy

Jan. 24, 2014 Rise Set
Actual Time 7:05 AM CST 5:06 PM CST
Civil Twilight 6:37 AM CST 5:35 PM CST
Nautical Twilight 6:04 AM CST 6:07 PM CST
Astronomical Twilight 5:33 AM CST 6:38 PM CST
Moon 12:33 AM CST (1/24) 11:24 AM CST (1/24)
Length of Visible Light 10h 57m
Length of Day
10h 00m
Last Quarter, 44% of the Moon is Illuminated
Jan 24
Last Quarter
Jan 30
New
Feb 6
First Quarter
Feb 14
Full
Feb 22
Last Quarter

Hourly Weather History & Observations

Time (CST) Temp. Windchill Dew Point Humidity Pressure Visibility Wind Dir Wind Speed Gust Speed Precip Events Conditions
12:15 AM 3.7 °F -3.6 °F -2.4 °F 76% 30.71 in 10.0 mi WSW 3.5 mph - N/A   Clear
12:35 AM 2.8 °F -4.6 °F -2.2 °F 79% 30.70 in 10.0 mi WSW 3.5 mph - N/A   Clear
12:55 AM 2.5 °F -5.0 °F -2.0 °F 81% 30.70 in 10.0 mi SW 3.5 mph - N/A   Clear
1:15 AM 2.1 °F -7.4 °F -2.2 °F 82% 30.69 in 10.0 mi SSW 4.6 mph - N/A   Clear
1:35 AM 1.6 °F -8.0 °F -2.7 °F 82% 30.69 in 10.0 mi SW 4.6 mph - N/A   Clear
1:55 AM 1.9 °F -5.6 °F -2.4 °F 82% 30.68 in 10.0 mi SW 3.5 mph - N/A   Clear
2:15 AM 1.4 °F -8.3 °F -2.6 °F 83% 30.68 in 10.0 mi SW 4.6 mph - N/A   Clear
2:35 AM 1.9 °F -7.6 °F -2.0 °F 83% 30.68 in 10.0 mi SW 4.6 mph - N/A   Clear
2:55 AM 2.3 °F -7.2 °F -1.8 °F 83% 30.67 in 10.0 mi SW 4.6 mph - N/A   Clear
3:15 AM 2.3 °F -8.8 °F -1.8 °F 83% 30.66 in 10.0 mi SW 5.8 mph - N/A   Clear
3:35 AM 1.9 °F -7.6 °F -2.2 °F 83% 30.65 in 10.0 mi SW 4.6 mph - N/A   Clear
3:55 AM 1.8 °F -7.8 °F -2.2 °F 83% 30.64 in 10.0 mi SW 4.6 mph - N/A   Clear
4:15 AM 1.9 °F -9.2 °F -2.2 °F 83% 30.63 in 10.0 mi SSW 5.8 mph - N/A   Clear
4:35 AM 2.3 °F -8.8 °F -2.0 °F 82% 30.62 in 10.0 mi SSW 5.8 mph - N/A   Clear
4:55 AM 2.8 °F -8.2 °F -1.8 °F 81% 30.62 in 10.0 mi SSW 5.8 mph - N/A   Clear
5:15 AM 3.0 °F -8.0 °F -1.8 °F 80% 30.60 in 10.0 mi SSW 5.8 mph - N/A   Clear
5:35 AM 3.0 °F -6.4 °F -2.2 °F 79% 30.60 in 10.0 mi SSW 4.6 mph - N/A   Clear
5:55 AM 3.6 °F -8.7 °F -1.7 °F 79% 30.59 in 10.0 mi South 6.9 mph - N/A   Clear
6:15 AM 3.9 °F -8.2 °F -1.5 °F 78% 30.59 in 10.0 mi SSW 6.9 mph - N/A   Clear
6:35 AM 4.1 °F -10.2 °F -1.3 °F 78% 30.58 in 10.0 mi SSW 9.2 mph - N/A   Clear
6:55 AM 4.6 °F -9.5 °F -0.9 °F 78% 30.57 in 10.0 mi SSW 9.2 mph - N/A   Clear
7:15 AM 5.0 °F -9.1 °F -0.9 °F 76% 30.57 in 10.0 mi SSW 9.2 mph - N/A   Clear
7:35 AM 5.9 °F -8.0 °F -0.4 °F 75% 30.56 in 10.0 mi SSW 9.2 mph - N/A   Clear
8:15 AM 8.6 °F -7.7 °F 1.2 °F 72% 30.54 in 10.0 mi SSW 13.8 mph 19.6 mph N/A   Clear
8:35 AM 9.7 °F -6.3 °F 1.8 °F 70% 30.54 in 10.0 mi SSW 13.8 mph - N/A   Clear
8:55 AM 10.4 °F -4.8 °F 1.8 °F 68% 30.53 in 10.0 mi SW 12.7 mph - N/A   Clear
9:15 AM 12.0 °F -4.0 °F 2.5 °F 66% 30.52 in 10.0 mi SSW 15.0 mph 20.7 mph N/A   Clear
9:35 AM 13.6 °F -3.0 °F 2.7 °F 62% 30.51 in 10.0 mi SSW 17.3 mph - N/A   Clear
9:55 AM 14.5 °F -3.6 °F 1.6 °F 57% 30.50 in 10.0 mi SW 21.9 mph 25.3 mph N/A   Clear
10:15 AM 15.6 °F -1.3 °F 1.2 °F 53% 30.49 in 10.0 mi SSW 19.6 mph 25.3 mph N/A   Clear
10:35 AM 16.9 °F 1.7 °F 1.8 °F 52% 30.47 in 10.0 mi SSW 16.1 mph 25.3 mph N/A   Clear
10:55 AM 18.3 °F 2.6 °F 1.9 °F 49% 30.46 in 10.0 mi SSW 18.4 mph 24.2 mph N/A   Clear
11:15 AM 18.5 °F 2.4 °F 2.8 °F 51% 30.42 in 10.0 mi SSW 19.6 mph 25.3 mph N/A   Clear
11:55 AM 19.6 °F 4.7 °F 2.8 °F 48% 30.37 in 10.0 mi SSW 17.3 mph - N/A   Clear
12:15 PM 20.7 °F 6.1 °F 3.4 °F 47% 30.35 in 10.0 mi SSW 17.3 mph - N/A   Clear
12:35 PM 21.7 °F 7.1 °F 5.0 °F 49% 30.32 in 10.0 mi South 18.4 mph - N/A   Clear
12:55 PM 22.8 °F 7.4 °F 4.3 °F 45% 30.30 in 10.0 mi SSW 21.9 mph 27.6 mph N/A   Clear
1:15 PM 24.4 °F 10.6 °F 5.5 °F 45% 30.27 in 10.0 mi SSW 18.4 mph - N/A   Clear
1:35 PM 24.1 °F 9.4 °F 5.0 °F 44% 30.24 in 10.0 mi South 20.7 mph 28.8 mph N/A   Clear
1:55 PM 24.4 °F 9.9 °F 3.7 °F 41% 30.22 in 10.0 mi South 20.7 mph 29.9 mph N/A   Clear
2:15 PM 25.0 °F 10.9 °F 3.6 °F 40% 30.21 in 10.0 mi South 19.6 mph 29.9 mph N/A   Clear
2:35 PM 25.3 °F 10.7 °F 3.6 °F 39% 30.20 in 10.0 mi SSW 21.9 mph 25.3 mph N/A   Clear
2:55 PM 24.8 °F 9.3 °F 4.3 °F 42% 30.16 in 10.0 mi SSW 24.2 mph 32.2 mph N/A   Clear
3:35 PM 24.8 °F 9.0 °F 5.0 °F 43% 30.11 in 10.0 mi South 25.3 mph 33.4 mph N/A   Clear
4:15 PM 24.8 °F 10.3 °F 4.3 °F 42% 30.09 in 10.0 mi SSW 20.7 mph 29.9 mph N/A   Clear
4:35 PM 24.8 °F 9.6 °F 4.1 °F 41% 30.06 in 10.0 mi SSW 23.0 mph 29.9 mph N/A   Clear
4:55 PM 24.4 °F 9.9 °F 4.8 °F 43% 30.04 in 10.0 mi SSW 20.7 mph 28.8 mph N/A   Clear
5:15 PM 24.3 °F 10.8 °F 4.1 °F 42% 30.03 in 10.0 mi South 17.3 mph 33.4 mph N/A   Clear
5:35 PM 24.4 °F 9.9 °F 4.8 °F 43% 30.03 in 10.0 mi SSW 20.7 mph 28.8 mph N/A   Clear
5:55 PM 24.3 °F 9.3 °F 4.1 °F 42% 30.02 in 10.0 mi SSW 21.9 mph 28.8 mph N/A   Clear
6:15 PM 24.1 °F 8.0 °F 4.5 °F 43% 30.01 in 10.0 mi SSW 25.3 mph 29.9 mph N/A   Clear
6:35 PM 23.9 °F 9.5 °F 4.8 °F 44% 30.01 in 10.0 mi SSW 19.6 mph 26.5 mph N/A   Clear
6:55 PM 23.9 °F 9.5 °F 5.4 °F 45% 30.00 in 10.0 mi SSW 19.6 mph 27.6 mph N/A   Clear
7:15 PM 24.3 °F 9.6 °F 5.7 °F 45% 29.98 in 10.0 mi SSW 20.7 mph 28.8 mph N/A   Clear
7:35 PM 24.6 °F 10.5 °F 6.3 °F 46% 29.97 in 10.0 mi SSW 19.6 mph 26.5 mph N/A   Clear
7:55 PM 24.8 °F 9.6 °F 6.4 °F 46% 29.97 in 10.0 mi SSW 23.0 mph 29.9 mph N/A   Clear
8:15 PM 25.3 °F 10.0 °F 7.0 °F 46% 29.95 in 10.0 mi SSW 24.2 mph 28.8 mph N/A   Clear
8:35 PM 25.7 °F 11.9 °F 7.3 °F 46% 29.96 in 10.0 mi SW 19.6 mph 27.6 mph N/A   Clear
9:15 PM 26.6 °F 13.1 °F 7.7 °F 45% 29.92 in 10.0 mi SSW 19.6 mph 28.8 mph N/A   Mostly Cloudy
9:35 PM 26.6 °F 13.1 °F 7.7 °F 45% 29.91 in 10.0 mi SSW 19.6 mph 29.9 mph N/A   Scattered Clouds
9:55 PM 27.0 °F 13.9 °F 7.7 °F 44% 29.89 in 10.0 mi SSW 18.4 mph 25.3 mph N/A   Clear
10:15 PM 27.5 °F 12.9 °F 7.2 °F 42% 29.88 in 10.0 mi SSW 24.2 mph 29.9 mph N/A   Clear
10:35 PM 27.9 °F 14.4 °F 7.7 °F 43% 29.87 in 10.0 mi SW 20.7 mph 29.9 mph N/A   Scattered Clouds
10:55 PM 28.0 °F 13.9 °F 7.7 °F 42% 29.85 in 10.0 mi SW 23.0 mph - N/A   Clear
11:15 PM 28.2 °F 14.8 °F 8.2 °F 43% 29.85 in 10.0 mi SW 20.7 mph 28.8 mph N/A   Clear
11:35 PM 28.4 °F 14.1 °F 8.2 °F 43% 29.83 in 10.0 mi SSW 24.2 mph 27.6 mph N/A   Clear
11:55 PM 28.6 °F 15.6 °F 8.8 °F 43% 29.80 in 10.0 mi SSW 19.6 mph 27.6 mph N/A   Clear